createdAt,value
2022-08-03T00:00:36.192Z,16.71
2022-08-03T00:01:36.238Z,20.58
2022-08-03T00:02:36.262Z,17.03
2022-08-03T00:03:36.170Z,20.90
2022-08-03T00:04:36.135Z,17.03
2022-08-03T00:05:36.102Z,21.22
2022-08-03T00:06:37.289Z,19.29
2022-08-03T00:07:36.114Z,18.96
2022-08-03T00:08:40.190Z,19.61
2022-08-03T00:09:36.110Z,18.96
2022-08-03T00:10:36.062Z,19.93
2022-08-03T00:11:36.041Z,18.96
2022-08-03T00:12:36.038Z,21.22
2022-08-03T00:13:36.242Z,21.54
2022-08-03T00:14:35.994Z,16.06
2022-08-03T00:15:36.065Z,20.25
2022-08-03T00:16:35.979Z,19.61
2022-08-03T00:17:53.293Z,22.19
2022-08-03T00:18:36.973Z,16.71
2022-08-03T00:19:36.111Z,19.61
2022-08-03T00:20:35.981Z,18.96
2022-08-03T00:21:35.919Z,16.39
2022-08-03T00:22:35.951Z,16.39
2022-08-03T00:23:52.363Z,18.32
2022-08-03T00:24:36.890Z,16.06
2022-08-03T00:25:35.949Z,19.93
2022-08-03T00:26:35.839Z,21.22
2022-08-03T00:27:35.903Z,17.35
2022-08-03T00:28:35.891Z,18.32
2022-08-03T00:29:59.340Z,19.29
2022-08-03T00:30:36.788Z,19.93
2022-08-03T00:31:51.609Z,15.42
2022-08-03T00:32:36.846Z,20.25
2022-08-03T00:33:58.244Z,19.29
2022-08-03T00:34:57.818Z,18.64
2022-08-03T00:35:50.718Z,23.15
2022-08-03T00:36:36.758Z,18.96
2022-08-03T00:37:41.030Z,18.64
2022-08-03T00:38:36.702Z,16.39
2022-08-03T00:39:35.676Z,18.96
2022-08-03T00:40:35.666Z,18.64
2022-08-03T00:41:35.645Z,15.42
2022-08-03T00:42:38.453Z,16.39
2022-08-03T00:43:36.672Z,16.71
2022-08-03T00:44:35.709Z,18.00
2022-08-03T00:45:35.718Z,18.64
2022-08-03T00:46:35.574Z,23.15
2022-08-03T00:47:35.604Z,17.35
2022-08-03T00:48:35.634Z,17.35
2022-08-03T00:49:35.683Z,18.96
2022-08-03T00:50:36.250Z,19.29
2022-08-03T00:51:35.552Z,18.64
2022-08-03T00:52:35.581Z,18.96
2022-08-03T00:53:35.488Z,19.29
2022-08-03T00:54:36.166Z,19.29
2022-08-03T00:55:35.457Z,21.87
2022-08-03T00:56:35.456Z,19.29
2022-08-03T00:57:35.747Z,20.25
2022-08-03T00:58:35.509Z,16.06
2022-08-03T00:59:35.435Z,15.74
2022-08-03T01:00:35.418Z,18.64
2022-08-03T01:01:35.457Z,19.93
2022-08-03T01:02:36.143Z,14.78
2022-08-03T01:03:35.403Z,16.06
2022-08-03T01:04:35.440Z,19.29
2022-08-03T01:05:35.392Z,16.06
2022-08-03T01:06:35.415Z,19.29
2022-08-03T01:07:35.384Z,20.58
2022-08-03T01:08:35.450Z,21.87
2022-08-03T01:09:35.369Z,20.25
2022-08-03T01:10:35.303Z,19.29
2022-08-03T01:11:35.309Z,19.29
2022-08-03T01:12:35.287Z,16.71
2022-08-03T01:14:01.176Z,18.32
2022-08-03T01:14:36.334Z,17.03
2022-08-03T01:15:35.210Z,18.00
2022-08-03T01:16:35.768Z,17.68
2022-08-03T01:17:35.315Z,21.22
2022-08-03T01:18:35.232Z,14.45
2022-08-03T01:19:35.334Z,18.64
2022-08-03T01:20:35.160Z,21.22
2022-08-03T01:21:35.369Z,20.25
2022-08-03T01:22:35.213Z,16.71
2022-08-03T01:23:35.095Z,18.96
2022-08-03T01:24:35.169Z,19.61
2022-08-03T01:25:35.180Z,18.00
2022-08-03T01:26:35.061Z,19.29
2022-08-03T01:27:35.058Z,19.93
2022-08-03T01:28:35.720Z,18.32
2022-08-03T01:29:35.051Z,18.00
2022-08-03T01:30:35.035Z,22.51
2022-08-03T01:31:35.025Z,17.35
2022-08-03T01:32:58.207Z,15.74
2022-08-03T01:33:35.962Z,18.32
2022-08-03T01:34:34.992Z,18.32
2022-08-03T01:35:38.268Z,22.19
2022-08-03T01:36:34.937Z,19.61
2022-08-03T01:37:34.935Z,17.35
2022-08-03T01:38:35.048Z,11.87
2022-08-03T01:39:34.940Z,19.61
2022-08-03T01:40:35.612Z,20.58
2022-08-03T01:41:34.939Z,20.25
2022-08-03T01:42:35.853Z,14.78
2022-08-03T01:44:27.918Z,20.58
2022-08-03T01:44:35.838Z,18.96
2022-08-03T01:45:35.010Z,14.78
2022-08-03T01:46:34.879Z,19.29
2022-08-03T01:47:35.095Z,16.71
2022-08-03T01:48:34.809Z,18.64
2022-08-03T01:49:34.857Z,16.39
2022-08-03T01:50:34.759Z,21.87
2022-08-03T01:51:57.680Z,19.93
2022-08-03T01:52:35.746Z,21.22
2022-08-03T01:53:34.801Z,18.64
2022-08-03T01:54:34.732Z,21.54
2022-08-03T01:55:34.777Z,16.71
2022-08-03T01:56:34.740Z,18.32
2022-08-03T01:57:34.825Z,22.51
2022-08-03T01:58:35.661Z,19.29
2022-08-03T01:59:34.714Z,18.32
2022-08-03T02:00:34.671Z,18.32
2022-08-03T02:02:27.683Z,18.64
2022-08-03T02:02:36.218Z,18.64
2022-08-03T02:03:35.443Z,19.29
2022-08-03T02:04:34.671Z,19.61
2022-08-03T02:05:35.782Z,15.42
2022-08-03T02:07:00.030Z,18.96
2022-08-03T02:07:35.536Z,17.03
2022-08-03T02:08:34.516Z,18.00
2022-08-03T02:09:34.510Z,22.83
2022-08-03T02:10:36.014Z,15.10
2022-08-03T02:11:34.498Z,18.00
2022-08-03T02:12:34.539Z,18.96
2022-08-03T02:13:34.509Z,21.54
2022-08-03T02:14:34.440Z,18.64
2022-08-03T02:15:34.489Z,15.10
2022-08-03T02:16:34.773Z,19.29
2022-08-03T02:17:39.724Z,21.87
2022-08-03T02:18:35.431Z,18.32
2022-08-03T02:19:35.838Z,18.32
2022-08-03T02:20:34.364Z,18.96
2022-08-03T02:21:57.408Z,18.96
2022-08-03T02:22:35.417Z,18.32
2022-08-03T02:23:34.323Z,21.54
2022-08-03T02:24:34.365Z,17.68
2022-08-03T02:25:34.282Z,16.39
2022-08-03T02:26:34.346Z,19.61
2022-08-03T02:27:34.356Z,21.87
2022-08-03T02:28:34.401Z,18.00
2022-08-03T02:29:39.734Z,17.35
2022-08-03T02:30:35.241Z,18.96
2022-08-03T02:31:34.290Z,18.32
2022-08-03T02:32:34.248Z,17.03
2022-08-03T02:33:34.340Z,15.10
2022-08-03T02:34:34.235Z,22.83
2022-08-03T02:35:34.161Z,18.64
2022-08-03T02:36:34.177Z,19.93
2022-08-03T02:37:34.134Z,19.29
2022-08-03T02:38:34.129Z,22.51
2022-08-03T02:39:34.105Z,21.22
2022-08-03T02:40:34.100Z,18.00
2022-08-03T02:41:34.148Z,19.29
2022-08-03T02:42:34.148Z,18.96
2022-08-03T02:43:40.225Z,17.03
2022-08-03T02:44:35.953Z,15.74
2022-08-03T02:45:34.116Z,19.29
2022-08-03T02:46:34.099Z,20.58
2022-08-03T02:47:53.463Z,15.74
2022-08-03T02:48:35.030Z,18.32
2022-08-03T02:49:42.709Z,21.87
2022-08-03T02:50:35.004Z,18.00
2022-08-03T02:51:34.145Z,19.29
2022-08-03T02:52:33.959Z,20.90
2022-08-03T02:53:34.061Z,15.42
2022-08-03T02:54:33.920Z,22.19
2022-08-03T02:55:33.917Z,18.64
2022-08-03T02:56:34.048Z,18.64
2022-08-03T02:57:34.705Z,15.42
2022-08-03T02:58:33.858Z,19.29
2022-08-03T02:59:33.897Z,21.22
2022-08-03T03:00:33.963Z,21.87
2022-08-03T03:01:35.120Z,18.64
2022-08-03T03:02:33.821Z,18.32
2022-08-03T03:03:37.257Z,16.06
2022-08-03T03:04:34.804Z,22.51
2022-08-03T03:05:54.594Z,22.83
2022-08-03T03:06:34.782Z,14.78
2022-08-03T03:07:39.802Z,20.58
2022-08-03T03:08:34.796Z,16.71
2022-08-03T03:09:41.712Z,18.96
2022-08-03T03:10:34.727Z,19.29
2022-08-03T03:11:33.703Z,18.00
2022-08-03T03:12:33.780Z,18.32
2022-08-03T03:13:33.780Z,19.61
2022-08-03T03:14:34.210Z,14.78
2022-08-03T03:15:33.700Z,15.42
2022-08-03T03:16:33.666Z,20.58
2022-08-03T03:17:33.630Z,14.78
2022-08-03T03:18:33.977Z,19.29
2022-08-03T03:19:33.610Z,21.22
2022-08-03T03:20:33.695Z,14.45
2022-08-03T03:21:33.620Z,17.35
2022-08-03T03:22:33.549Z,21.87
2022-08-03T03:23:34.070Z,14.45
2022-08-03T03:24:34.201Z,16.39
2022-08-03T03:25:33.531Z,15.42
2022-08-03T03:26:33.511Z,17.35
2022-08-03T03:27:34.191Z,17.03
2022-08-03T03:28:34.355Z,14.13
2022-08-03T03:29:39.486Z,13.81
2022-08-03T03:30:34.440Z,18.00
2022-08-03T03:31:33.529Z,17.68
2022-08-03T03:32:33.494Z,18.32
2022-08-03T03:33:33.412Z,15.42
2022-08-03T03:34:33.422Z,18.64
2022-08-03T03:35:38.948Z,18.32
2022-08-03T03:36:34.431Z,14.13
2022-08-03T03:37:34.052Z,14.13
2022-08-03T03:38:33.352Z,21.54
2022-08-03T03:39:33.449Z,14.78
2022-08-03T03:40:33.313Z,15.10
2022-08-03T03:41:37.736Z,18.00
2022-08-03T03:42:33.305Z,17.03
2022-08-03T03:43:33.401Z,13.16
2022-08-03T03:44:33.353Z,19.61
2022-08-03T03:45:33.291Z,22.19
2022-08-03T03:46:33.955Z,18.32
2022-08-03T03:47:33.358Z,21.54
2022-08-03T03:48:33.227Z,18.64
2022-08-03T03:49:33.249Z,17.03
2022-08-03T03:50:33.229Z,15.74
2022-08-03T03:51:33.406Z,17.03
2022-08-03T03:52:33.225Z,15.74
2022-08-03T03:53:33.186Z,17.68
2022-08-03T03:54:33.185Z,21.87
2022-08-03T03:55:33.174Z,17.35
2022-08-03T03:56:34.141Z,19.29
2022-08-03T03:57:33.093Z,19.61
2022-08-03T03:58:33.772Z,17.03
2022-08-03T03:59:33.065Z,18.32
2022-08-03T04:00:33.157Z,18.64
2022-08-03T04:01:34.078Z,19.61
2022-08-03T04:02:33.077Z,15.10
2022-08-03T04:03:33.736Z,15.74
2022-08-03T04:04:33.098Z,14.13
2022-08-03T04:05:33.004Z,18.32
2022-08-03T04:06:33.052Z,18.64
2022-08-03T04:07:32.986Z,15.42
2022-08-03T04:08:32.957Z,17.68
2022-08-03T04:09:32.976Z,21.22
2022-08-03T04:10:33.172Z,17.03
2022-08-03T04:11:32.946Z,18.32
2022-08-03T04:12:32.971Z,22.19
2022-08-03T04:13:32.887Z,18.96
2022-08-03T04:14:32.883Z,19.29
2022-08-03T04:15:33.815Z,19.93
2022-08-03T04:16:33.019Z,17.03
2022-08-03T04:17:32.918Z,15.74
2022-08-03T04:18:33.580Z,18.64
2022-08-03T04:19:32.866Z,21.87
2022-08-03T04:20:32.802Z,14.13
2022-08-03T04:21:32.848Z,19.93
2022-08-03T04:22:32.824Z,12.84
2022-08-03T04:23:32.764Z,14.13
2022-08-03T04:24:33.070Z,19.29
2022-08-03T04:25:32.723Z,21.54
2022-08-03T04:26:32.771Z,17.03
2022-08-03T04:27:32.723Z,18.96
2022-08-03T04:28:32.788Z,22.51
2022-08-03T04:29:32.670Z,16.06
2022-08-03T04:30:32.698Z,14.13
2022-08-03T04:31:32.681Z,17.03
2022-08-03T04:32:32.688Z,17.35
2022-08-03T04:33:32.640Z,14.45
2022-08-03T04:34:32.635Z,18.00
2022-08-03T04:36:01.594Z,14.78
2022-08-03T04:36:33.583Z,14.45
2022-08-03T04:37:32.689Z,22.19
2022-08-03T04:38:32.574Z,21.87
2022-08-03T04:39:32.553Z,14.13
2022-08-03T04:40:32.535Z,17.68
2022-08-03T04:41:32.589Z,21.54
2022-08-03T04:42:33.535Z,17.68
2022-08-03T04:43:32.554Z,13.81
2022-08-03T04:44:32.576Z,18.32
2022-08-03T04:45:32.537Z,17.68
2022-08-03T04:46:32.448Z,17.68
2022-08-03T04:47:32.450Z,18.00
2022-08-03T04:48:33.384Z,18.00
2022-08-03T04:49:32.483Z,15.74
2022-08-03T04:50:32.413Z,19.61
2022-08-03T04:51:32.394Z,18.64
2022-08-03T04:52:32.443Z,18.64
2022-08-03T04:53:32.394Z,14.45
2022-08-03T04:54:33.322Z,17.68
2022-08-03T04:55:32.507Z,18.32
2022-08-03T04:56:32.378Z,17.35
2022-08-03T04:57:32.644Z,17.68
2022-08-03T04:58:32.293Z,20.25
2022-08-03T04:59:32.312Z,21.22
2022-08-03T05:00:32.271Z,18.00
2022-08-03T05:01:32.706Z,19.29
2022-08-03T05:02:32.445Z,19.29
2022-08-03T05:03:32.246Z,18.64
2022-08-03T05:04:32.232Z,20.90
2022-08-03T05:05:48.814Z,22.19
2022-08-03T05:06:33.288Z,16.39
2022-08-03T05:07:35.538Z,18.96
2022-08-03T05:08:32.168Z,20.58
2022-08-03T05:09:50.031Z,16.06
2022-08-03T05:10:33.166Z,14.78
2022-08-03T05:11:32.192Z,18.64
2022-08-03T05:12:32.992Z,21.87
2022-08-03T05:13:32.167Z,18.64
2022-08-03T05:14:32.110Z,22.83
2022-08-03T05:15:32.092Z,18.96
2022-08-03T05:16:32.090Z,19.29
2022-08-03T05:17:32.047Z,20.90
2022-08-03T05:18:32.135Z,18.96
2022-08-03T05:19:32.057Z,18.96
2022-08-03T05:20:32.712Z,20.25
2022-08-03T05:21:50.379Z,18.32
2022-08-03T05:22:32.995Z,21.22
2022-08-03T05:23:32.345Z,17.68
2022-08-03T05:24:31.980Z,15.42
2022-08-03T05:25:32.641Z,15.74
2022-08-03T05:26:31.964Z,20.58
2022-08-03T05:27:32.005Z,19.61
2022-08-03T05:28:32.152Z,19.61
2022-08-03T05:29:32.023Z,17.68
2022-08-03T05:30:34.319Z,18.32
2022-08-03T05:31:31.873Z,22.83
2022-08-03T05:32:31.852Z,20.25
2022-08-03T05:33:31.893Z,18.64
2022-08-03T05:34:31.863Z,16.39
2022-08-03T05:36:00.609Z,22.19
2022-08-03T05:36:32.880Z,19.93
2022-08-03T05:37:33.610Z,20.58
2022-08-03T05:38:34.012Z,20.25
2022-08-03T05:39:31.807Z,20.58
2022-08-03T05:40:31.797Z,20.58
2022-08-03T05:41:37.096Z,19.29
2022-08-03T05:42:32.724Z,18.64
2022-08-03T05:43:31.826Z,21.87
2022-08-03T05:44:31.754Z,16.71
2022-08-03T05:45:31.750Z,19.61
2022-08-03T05:46:34.730Z,20.25
2022-08-03T05:47:32.376Z,19.93
2022-08-03T05:48:31.670Z,21.22
2022-08-03T05:49:31.726Z,17.03
2022-08-03T05:50:32.653Z,18.96
2022-08-03T05:51:31.612Z,19.29
2022-08-03T05:52:31.609Z,20.25
2022-08-03T05:53:31.622Z,20.25
2022-08-03T05:54:56.306Z,20.90
2022-08-03T05:55:32.930Z,17.68
2022-08-03T05:56:32.083Z,22.51
2022-08-03T05:57:31.548Z,15.74
2022-08-03T05:58:31.518Z,21.54
2022-08-03T05:59:38.814Z,20.25
2022-08-03T06:00:32.515Z,19.93
2022-08-03T06:01:31.538Z,19.93
2022-08-03T06:02:31.538Z,20.25
2022-08-03T06:03:31.493Z,18.32
2022-08-03T06:04:31.461Z,19.29
2022-08-03T06:05:31.485Z,16.71
2022-08-03T06:06:32.443Z,17.35
2022-08-03T06:07:31.539Z,20.90
2022-08-03T06:08:32.057Z,20.90
2022-08-03T06:10:34.410Z,19.93
2022-08-03T06:10:35.857Z,20.58
2022-08-03T06:11:32.361Z,20.58
2022-08-03T06:12:31.480Z,18.32
2022-08-03T06:13:31.446Z,18.32
2022-08-03T06:14:31.324Z,19.61
2022-08-03T06:15:31.365Z,18.00
2022-08-03T06:16:31.564Z,24.12
2022-08-03T06:17:37.718Z,23.15
2022-08-03T06:18:32.271Z,18.32
2022-08-03T06:19:31.268Z,20.58
2022-08-03T06:20:31.338Z,20.58
2022-08-03T06:21:31.222Z,21.22
2022-08-03T06:22:31.289Z,19.93
2022-08-03T06:23:53.128Z,21.54
2022-08-03T06:24:32.180Z,20.90
2022-08-03T06:25:31.457Z,20.90
2022-08-03T06:26:31.773Z,20.25
2022-08-03T06:27:36.739Z,20.25
2022-08-03T06:28:53.303Z,19.93
2022-08-03T06:29:32.117Z,20.58
2022-08-03T06:30:31.122Z,20.58
2022-08-03T06:31:33.842Z,18.64
2022-08-03T06:32:31.080Z,20.90
2022-08-03T06:34:29.100Z,21.22
2022-08-03T06:34:35.694Z,21.54
2022-08-03T06:35:31.733Z,18.32
2022-08-03T06:36:31.052Z,20.25
2022-08-03T06:37:31.028Z,17.68
2022-08-03T06:38:31.023Z,22.51
2022-08-03T06:39:31.691Z,20.25
2022-08-03T06:40:30.979Z,22.19
2022-08-03T06:41:31.004Z,20.58
2022-08-03T06:42:31.962Z,24.12
2022-08-03T06:43:30.964Z,23.48
2022-08-03T06:44:31.944Z,18.96
2022-08-03T06:45:32.061Z,22.19
2022-08-03T06:46:30.928Z,22.19
2022-08-03T06:47:30.916Z,23.48
2022-08-03T06:48:31.644Z,23.15
2022-08-03T06:49:30.948Z,22.83
2022-08-03T06:50:30.932Z,21.22
2022-08-03T06:52:04.505Z,22.19
2022-08-03T06:52:38.096Z,22.19
2022-08-03T06:53:31.850Z,22.83
2022-08-03T06:54:33.273Z,21.22
2022-08-03T06:55:34.726Z,19.29
2022-08-03T06:56:31.756Z,18.64
2022-08-03T06:57:30.810Z,20.90
2022-08-03T06:58:30.778Z,21.54
2022-08-03T07:00:07.822Z,21.54
2022-08-03T07:00:31.714Z,20.25
2022-08-03T07:01:30.813Z,22.51
2022-08-03T07:02:30.889Z,19.61
2022-08-03T07:03:30.703Z,21.87
2022-08-03T07:04:30.681Z,21.87
2022-08-03T07:05:30.743Z,19.29
2022-08-03T07:06:30.638Z,20.90
2022-08-03T07:07:30.633Z,26.38
2022-08-03T07:08:33.338Z,24.12
2022-08-03T07:09:30.659Z,18.96
2022-08-03T07:10:34.564Z,25.41
2022-08-03T07:11:30.590Z,21.87
2022-08-03T07:12:30.629Z,22.51
2022-08-03T07:13:30.545Z,23.80
2022-08-03T07:14:30.575Z,23.15
2022-08-03T07:15:54.129Z,22.83
2022-08-03T07:16:31.523Z,22.83
2022-08-03T07:17:30.512Z,21.87
2022-08-03T07:18:30.517Z,21.22
2022-08-03T07:19:30.526Z,23.15
2022-08-03T07:20:32.614Z,22.51
2022-08-03T07:21:30.465Z,22.83
2022-08-03T07:22:30.470Z,21.87
2022-08-03T07:23:30.447Z,22.51
2022-08-03T07:24:30.464Z,22.19
2022-08-03T07:25:30.491Z,22.83
2022-08-03T07:26:30.371Z,21.87
2022-08-03T07:27:30.417Z,22.51
2022-08-03T07:28:30.371Z,23.48
2022-08-03T07:29:30.362Z,23.15
2022-08-03T07:30:30.339Z,25.09
2022-08-03T07:31:34.234Z,22.83
2022-08-03T07:32:30.293Z,23.48
2022-08-03T07:33:30.287Z,22.83
2022-08-03T07:34:30.298Z,23.15
2022-08-03T07:35:30.281Z,22.83
2022-08-03T07:36:30.240Z,19.93
2022-08-03T07:37:30.233Z,23.80
2022-08-03T07:38:30.254Z,20.90
2022-08-03T07:39:30.242Z,23.15
2022-08-03T07:40:31.676Z,24.12
2022-08-03T07:41:30.183Z,22.83
2022-08-03T07:42:30.168Z,23.15
2022-08-03T07:43:30.178Z,23.48
2022-08-03T07:44:30.133Z,21.22
2022-08-03T07:45:30.137Z,20.90
2022-08-03T07:46:30.129Z,23.15
2022-08-03T07:47:35.246Z,23.48
2022-08-03T07:48:31.124Z,23.48
2022-08-03T07:49:30.181Z,22.19
2022-08-03T07:50:30.089Z,20.58
2022-08-03T07:51:30.070Z,25.09
2022-08-03T07:52:30.045Z,24.12
2022-08-03T07:53:30.052Z,25.41
2022-08-03T07:54:30.033Z,23.48
2022-08-03T07:55:30.072Z,27.34
2022-08-03T07:56:30.013Z,24.12
2022-08-03T07:57:29.979Z,24.77
2022-08-03T07:58:29.982Z,20.58
2022-08-03T07:59:57.081Z,22.83
2022-08-03T08:00:30.960Z,23.48
2022-08-03T08:01:30.037Z,26.05
2022-08-03T08:02:29.923Z,23.48
2022-08-03T08:03:29.921Z,21.22
2022-08-03T08:04:30.934Z,26.38
2022-08-03T08:05:30.115Z,23.15
2022-08-03T08:06:29.878Z,23.48
2022-08-03T08:07:29.870Z,26.05
2022-08-03T08:08:29.860Z,22.19
2022-08-03T08:09:29.906Z,27.02
2022-08-03T08:10:29.844Z,23.80
2022-08-03T08:11:29.849Z,27.02
2022-08-03T08:12:29.810Z,26.38
2022-08-03T08:13:29.802Z,26.38
2022-08-03T08:14:29.779Z,23.80
2022-08-03T08:15:29.763Z,24.12
2022-08-03T08:16:30.746Z,23.80
2022-08-03T08:17:29.734Z,24.12
2022-08-03T08:18:29.746Z,23.80
2022-08-03T08:19:29.726Z,22.83
2022-08-03T08:20:31.282Z,25.73
2022-08-03T08:21:53.261Z,24.44
2022-08-03T08:22:31.435Z,24.12
2022-08-03T08:23:41.984Z,24.77
2022-08-03T08:24:30.627Z,24.12
2022-08-03T08:25:29.692Z,24.12
2022-08-03T08:26:29.622Z,23.80
2022-08-03T08:28:30.890Z,21.87
2022-08-03T08:28:33.736Z,26.38
2022-08-03T08:29:29.572Z,24.44
2022-08-03T08:30:29.580Z,26.70
2022-08-03T08:31:29.541Z,24.44
2022-08-03T08:32:29.531Z,25.41
2022-08-03T08:33:47.878Z,26.05
2022-08-03T08:34:34.436Z,22.51
2022-08-03T08:35:29.494Z,24.77
2022-08-03T08:36:29.490Z,25.09
2022-08-03T08:37:29.464Z,25.09
2022-08-03T08:38:29.444Z,24.44
2022-08-03T08:39:29.442Z,25.41
2022-08-03T08:40:29.436Z,22.19
2022-08-03T08:41:32.052Z,24.44
2022-08-03T08:42:29.409Z,27.34
2022-08-03T08:43:29.384Z,22.51
2022-08-03T08:44:29.364Z,26.70
2022-08-03T08:45:29.426Z,24.77
2022-08-03T08:46:29.356Z,22.51
2022-08-03T08:47:29.356Z,23.80
2022-08-03T08:48:30.327Z,25.09
2022-08-03T08:49:29.371Z,27.67
2022-08-03T08:50:29.408Z,25.09
2022-08-03T08:51:50.607Z,25.41
2022-08-03T08:52:32.157Z,23.15
2022-08-03T08:53:29.250Z,23.15
2022-08-03T08:54:29.244Z,25.09
2022-08-03T08:55:29.375Z,25.09
2022-08-03T08:56:29.220Z,27.99
2022-08-03T08:57:42.279Z,24.12
2022-08-03T08:58:30.210Z,25.09
2022-08-03T08:59:48.481Z,25.41
2022-08-03T09:00:30.185Z,26.38
2022-08-03T09:01:32.924Z,22.51
2022-08-03T09:02:29.172Z,22.51
2022-08-03T09:03:30.576Z,25.41
2022-08-03T09:04:29.109Z,25.09
2022-08-03T09:05:54.624Z,25.41
2022-08-03T09:06:30.121Z,25.41
2022-08-03T09:07:30.193Z,29.28
2022-08-03T09:08:29.070Z,25.41
2022-08-03T09:10:07.539Z,25.73
2022-08-03T09:10:30.051Z,25.73
2022-08-03T09:11:52.453Z,24.44
2022-08-03T09:12:41.530Z,28.31
2022-08-03T09:13:30.021Z,26.05
2022-08-03T09:14:36.616Z,27.34
2022-08-03T09:15:29.981Z,26.05
2022-08-03T09:16:29.030Z,28.31
2022-08-03T09:17:29.012Z,32.18
2022-08-03T09:18:29.321Z,27.99
2022-08-03T09:19:28.905Z,28.63
2022-08-03T09:20:28.909Z,29.92
2022-08-03T09:21:33.235Z,30.57
2022-08-03T09:22:29.894Z,30.57
2022-08-03T09:23:51.653Z,31.53
2022-08-03T09:24:41.036Z,31.86
2022-08-03T09:25:29.844Z,35.40
2022-08-03T09:26:28.925Z,32.82
2022-08-03T09:27:28.874Z,29.92
2022-08-03T09:28:59.859Z,32.50
2022-08-03T09:29:29.812Z,33.47
2022-08-03T09:30:34.625Z,31.53
2022-08-03T09:31:29.785Z,32.50
2022-08-03T09:32:28.753Z,32.82
2022-08-03T09:33:36.139Z,33.79
2022-08-03T09:34:29.733Z,34.11
2022-08-03T09:35:51.541Z,33.79
2022-08-03T09:36:29.727Z,33.47
2022-08-03T09:38:14.084Z,32.50
2022-08-03T09:38:29.687Z,32.18
2022-08-03T09:39:41.709Z,30.89
2022-08-03T09:40:29.660Z,32.18
2022-08-03T09:41:28.629Z,31.53
2022-08-03T09:42:28.655Z,30.57
2022-08-03T09:43:28.650Z,30.24
2022-08-03T09:44:28.612Z,30.24
2022-08-03T09:45:28.607Z,36.04
2022-08-03T09:46:28.640Z,32.82
2022-08-03T09:47:28.587Z,30.89
2022-08-03T09:48:28.581Z,32.82
2022-08-03T09:49:28.629Z,30.57
2022-08-03T09:50:28.542Z,29.60
2022-08-03T09:52:04.963Z,29.60
2022-08-03T09:52:38.063Z,29.60
2022-08-03T09:53:29.500Z,29.92
2022-08-03T09:54:28.483Z,30.24
2022-08-03T09:56:34.346Z,29.28
2022-08-03T09:56:35.912Z,27.67
2022-08-03T09:57:29.492Z,29.92
2022-08-03T09:58:28.440Z,29.92
2022-08-03T09:59:28.414Z,29.92
2022-08-03T10:00:28.392Z,29.60
2022-08-03T10:01:28.532Z,26.70
2022-08-03T10:02:28.415Z,27.67
2022-08-03T10:03:28.374Z,29.28
2022-08-03T10:04:28.359Z,30.24
2022-08-03T10:05:28.340Z,28.96
2022-08-03T10:06:28.956Z,29.28
2022-08-03T10:07:28.317Z,28.63
2022-08-03T10:08:28.360Z,26.38
2022-08-03T10:09:28.282Z,28.96
2022-08-03T10:10:30.371Z,31.21
2022-08-03T10:11:28.273Z,29.28
2022-08-03T10:12:28.264Z,27.34
2022-08-03T10:13:28.257Z,28.96
2022-08-03T10:14:28.231Z,29.28
2022-08-03T10:16:24.209Z,28.96
2022-08-03T10:16:29.191Z,28.96
2022-08-03T10:17:28.183Z,28.96
2022-08-03T10:18:28.202Z,27.99
2022-08-03T10:19:28.162Z,28.96
2022-08-03T10:20:28.182Z,28.63
2022-08-03T10:21:28.128Z,28.96
2022-08-03T10:22:28.119Z,30.89
2022-08-03T10:23:33.181Z,26.70
2022-08-03T10:24:29.089Z,27.99
2022-08-03T10:25:32.986Z,27.34
2022-08-03T10:26:29.064Z,31.53
2022-08-03T10:27:28.064Z,28.96
2022-08-03T10:28:28.064Z,28.96
2022-08-03T10:29:28.079Z,26.05
2022-08-03T10:30:28.018Z,26.05
2022-08-03T10:31:28.067Z,28.31
2022-08-03T10:32:27.995Z,28.96
2022-08-03T10:33:51.511Z,29.28
2022-08-03T10:34:28.982Z,28.63
2022-08-03T10:35:27.948Z,28.96
2022-08-03T10:36:28.159Z,28.96
2022-08-03T10:37:27.940Z,29.92
2022-08-03T10:38:27.925Z,27.02
2022-08-03T10:39:27.889Z,28.96
2022-08-03T10:40:55.801Z,27.34
2022-08-03T10:41:28.900Z,27.34
2022-08-03T10:42:27.862Z,30.89
2022-08-03T10:43:27.860Z,31.53
2022-08-03T10:44:27.857Z,27.99
2022-08-03T10:45:27.829Z,29.92
2022-08-03T10:46:27.813Z,28.31
2022-08-03T10:47:27.794Z,26.38
2022-08-03T10:48:27.796Z,29.92
2022-08-03T10:49:34.393Z,31.53
2022-08-03T10:50:28.778Z,28.63
2022-08-03T10:51:27.755Z,30.24
2022-08-03T10:52:33.737Z,29.60
2022-08-03T10:53:28.731Z,29.60
2022-08-03T10:54:27.937Z,25.41
2022-08-03T10:55:27.693Z,30.89
2022-08-03T10:56:27.693Z,29.28
2022-08-03T10:57:28.681Z,29.60
2022-08-03T10:58:30.813Z,29.60
2022-08-03T10:59:28.279Z,29.28
2022-08-03T11:00:27.716Z,29.60
2022-08-03T11:01:27.626Z,29.60
2022-08-03T11:02:28.714Z,31.53
2022-08-03T11:03:27.615Z,33.14
2022-08-03T11:04:27.610Z,33.14
2022-08-03T11:05:27.587Z,31.21
2022-08-03T11:06:28.367Z,30.57
2022-08-03T11:07:28.596Z,29.92
2022-08-03T11:08:27.532Z,34.11
2022-08-03T11:09:27.526Z,31.53
2022-08-03T11:10:31.532Z,31.21
2022-08-03T11:11:27.503Z,29.92
2022-08-03T11:12:30.194Z,30.89
2022-08-03T11:13:27.482Z,29.60
2022-08-03T11:14:27.476Z,30.57
2022-08-03T11:15:31.742Z,31.86
2022-08-03T11:16:27.535Z,31.86
2022-08-03T11:17:27.424Z,28.31
2022-08-03T11:18:27.486Z,28.96
2022-08-03T11:19:27.757Z,33.14
2022-08-03T11:20:27.391Z,33.14
2022-08-03T11:21:30.344Z,31.53
2022-08-03T11:22:27.360Z,31.21
2022-08-03T11:24:04.859Z,31.86
2022-08-03T11:24:28.396Z,33.14
2022-08-03T11:25:53.559Z,32.50
2022-08-03T11:26:28.360Z,31.53
2022-08-03T11:27:27.302Z,32.50
2022-08-03T11:28:27.299Z,31.86
2022-08-03T11:29:27.306Z,32.18
2022-08-03T11:30:27.744Z,34.76
2022-08-03T11:32:28.238Z,29.60
2022-08-03T11:33:27.221Z,29.92
2022-08-03T11:34:27.246Z,31.21
2022-08-03T11:35:27.232Z,30.57
2022-08-03T11:36:32.412Z,30.57
2022-08-03T11:37:33.157Z,33.14
2022-08-03T11:38:28.169Z,31.53
2022-08-03T11:39:27.159Z,30.89
2022-08-03T11:40:27.143Z,30.89
2022-08-03T11:41:27.121Z,31.53
2022-08-03T11:42:27.115Z,32.18
2022-08-03T11:43:30.819Z,32.18
2022-08-03T11:44:27.073Z,30.89
2022-08-03T11:45:27.084Z,32.18
2022-08-03T11:46:29.342Z,32.82
2022-08-03T11:47:27.080Z,32.50
2022-08-03T11:48:27.032Z,32.50
2022-08-03T11:49:27.031Z,32.18
2022-08-03T11:50:27.025Z,33.79
2022-08-03T11:51:27.015Z,34.43
2022-08-03T11:52:28.737Z,33.47
2022-08-03T11:53:26.975Z,32.82
2022-08-03T11:54:26.977Z,33.14
2022-08-03T11:55:30.588Z,33.79
2022-08-03T11:56:26.929Z,32.82
2022-08-03T11:58:58.106Z,35.40
2022-08-03T11:59:01.382Z,31.21
2022-08-03T11:59:27.913Z,30.57
2022-08-03T12:00:26.903Z,33.79
2022-08-03T12:01:26.887Z,33.79
2022-08-03T12:02:26.878Z,33.79
2022-08-03T12:03:26.941Z,34.43
2022-08-03T12:04:26.845Z,34.76
2022-08-03T12:05:26.857Z,34.11
2022-08-03T12:06:27.039Z,34.43
2022-08-03T12:08:04.235Z,34.43
2022-08-03T12:08:27.798Z,35.08
2022-08-03T12:09:26.787Z,33.79
2022-08-03T12:10:26.829Z,34.11
2022-08-03T12:11:26.764Z,31.21
2022-08-03T12:12:26.783Z,34.43
2022-08-03T12:14:27.376Z,34.43
2022-08-03T12:14:49.546Z,32.18
2022-08-03T12:15:27.716Z,36.04
2022-08-03T12:16:26.704Z,34.76
2022-08-03T12:17:27.642Z,36.69
2022-08-03T12:18:26.683Z,35.72
2022-08-03T12:19:26.658Z,34.76
2022-08-03T12:20:34.633Z,35.72
2022-08-03T12:21:27.677Z,33.79
2022-08-03T12:22:26.635Z,35.72
2022-08-03T12:23:26.617Z,34.43
2022-08-03T12:24:26.971Z,36.37
2022-08-03T12:25:38.754Z,37.66
2022-08-03T12:26:27.600Z,34.43
2022-08-03T12:27:26.605Z,34.43
2022-08-03T12:28:36.353Z,35.40
2022-08-03T12:29:27.567Z,35.08
2022-08-03T12:30:26.591Z,35.72
2022-08-03T12:31:26.556Z,37.66
2022-08-03T12:32:26.516Z,33.14
2022-08-03T12:33:26.513Z,37.98
2022-08-03T12:34:26.481Z,37.98
2022-08-03T12:35:26.514Z,35.40
2022-08-03T12:36:26.557Z,37.66
2022-08-03T12:37:26.463Z,36.04
2022-08-03T12:38:26.445Z,36.04
2022-08-03T12:39:26.431Z,36.37
2022-08-03T12:40:28.260Z,37.66
2022-08-03T12:41:26.418Z,36.04
2022-08-03T12:42:26.399Z,37.66
2022-08-03T12:43:26.428Z,35.72
2022-08-03T12:44:27.414Z,37.66
2022-08-03T12:45:26.362Z,34.76
2022-08-03T12:46:26.391Z,35.08
2022-08-03T12:47:26.340Z,37.98
2022-08-03T12:48:27.717Z,37.01
2022-08-03T12:49:26.445Z,37.01
2022-08-03T12:50:26.330Z,35.40
2022-08-03T12:51:26.308Z,36.37
2022-08-03T12:52:26.271Z,36.04
2022-08-03T12:53:26.271Z,36.04